createdAt,value
2022-12-07T00:01:35.279Z,101987.09
2022-12-07T00:04:07.025Z,101971.56
2022-12-07T00:06:42.145Z,101968.28
2022-12-07T00:09:12.352Z,101980.41
2022-12-07T00:11:38.934Z,101978.97
2022-12-07T00:14:08.795Z,101984.13
2022-12-07T00:16:35.995Z,101972.31
2022-12-07T00:19:04.281Z,101968.41
2022-12-07T00:21:33.353Z,101964.50
2022-12-07T00:23:59.935Z,101970.78
2022-12-07T00:26:29.395Z,101972.59
2022-12-07T00:28:58.246Z,101963.91
2022-12-07T00:31:27.391Z,101967.69
2022-12-07T00:33:54.110Z,101959.69
2022-12-07T00:36:26.954Z,101956.50
2022-12-07T00:38:55.544Z,101955.69
2022-12-07T00:41:24.468Z,101955.47
2022-12-07T00:43:51.624Z,101937.31
2022-12-07T00:46:19.069Z,101944.19
2022-12-07T00:48:45.853Z,101938.13
2022-12-07T00:51:14.310Z,101952.63
2022-12-07T00:53:42.101Z,101952.72
2022-12-07T00:56:12.505Z,101949.41
2022-12-07T00:58:39.058Z,101958.16
2022-12-07T01:01:07.797Z,101942.16
2022-12-07T01:03:34.655Z,101947.28
2022-12-07T01:06:01.048Z,101946.75
2022-12-07T01:08:28.977Z,101946.84
2022-12-07T01:11:06.824Z,101943.38
2022-12-07T01:13:35.550Z,101944.16
2022-12-07T01:16:04.869Z,101955.47
2022-12-07T01:18:34.216Z,101938.63
2022-12-07T01:21:00.523Z,101945.72
2022-12-07T01:23:26.980Z,101940.06
2022-12-07T01:25:58.019Z,101945.91
2022-12-07T01:28:25.098Z,101946.09
2022-12-07T01:30:59.726Z,101951.25
2022-12-07T01:33:28.494Z,101943.84
2022-12-07T01:35:55.191Z,101946.00
2022-12-07T01:38:21.548Z,101950.50
2022-12-07T01:40:55.246Z,101949.78
2022-12-07T01:43:24.441Z,101947.31
2022-12-07T01:45:51.114Z,101946.59
2022-12-07T01:48:20.782Z,101947.81
2022-12-07T01:50:49.855Z,101953.94
2022-12-07T01:53:17.525Z,101959.06
2022-12-07T01:55:48.432Z,101955.06
2022-12-07T01:58:15.985Z,101952.50
2022-12-07T02:00:42.546Z,101957.00
2022-12-07T02:03:35.788Z,101952.69
2022-12-07T02:06:02.277Z,101955.06
2022-12-07T02:08:28.738Z,101963.38
2022-12-07T02:10:55.964Z,101950.56
2022-12-07T02:13:26.050Z,101945.34
2022-12-07T02:16:04.690Z,101947.09
2022-12-07T02:18:50.859Z,101947.09
2022-12-07T02:21:46.920Z,101944.53
2022-12-07T02:24:36.990Z,101942.88
2022-12-07T04:14:46.174Z,101915.41
2022-12-07T04:17:12.573Z,101901.59
2022-12-07T04:19:39.089Z,101898.13
2022-12-07T04:22:06.215Z,101897.38
2022-12-07T04:24:32.969Z,101900.03
2022-12-07T04:26:59.440Z,101894.09
2022-12-07T04:29:26.197Z,101899.31
2022-12-07T04:31:53.239Z,101906.41
2022-12-07T04:34:20.487Z,101905.88
2022-12-07T04:36:48.065Z,101900.22
2022-12-07T04:39:26.466Z,101891.81
2022-12-07T04:41:53.796Z,101892.84
2022-12-07T04:44:21.056Z,101902.06
2022-12-07T04:46:47.764Z,101900.44
2022-12-07T04:49:15.323Z,101896.03
2022-12-07T04:51:42.617Z,101906.00
2022-12-07T04:54:09.050Z,101902.81
2022-12-07T04:56:36.190Z,101896.28
2022-12-07T04:59:03.749Z,101891.66
2022-12-07T05:01:30.210Z,101887.22
2022-12-07T05:03:56.774Z,101880.28
2022-12-07T05:06:23.644Z,101883.88
2022-12-07T05:08:50.028Z,101888.56
2022-12-07T05:11:36.078Z,101882.94
2022-12-07T05:14:12.865Z,101885.19
2022-12-07T05:16:40.085Z,101884.75
2022-12-07T05:19:06.996Z,101884.31
2022-12-07T05:21:33.975Z,101883.00
2022-12-07T05:24:00.741Z,101885.84
2022-12-07T05:26:27.587Z,101886.13
2022-12-07T05:28:55.539Z,101882.75
2022-12-07T05:31:23.294Z,101891.47
2022-12-07T05:33:49.894Z,101895.06
2022-12-07T05:36:16.330Z,101883.16
2022-12-07T05:38:42.793Z,101888.28
2022-12-07T05:41:32.977Z,101887.47
2022-12-07T05:43:59.345Z,101891.03
2022-12-07T05:46:25.893Z,101894.41
2022-12-07T05:48:52.436Z,101899.34
2022-12-07T05:51:19.623Z,101896.59
2022-12-07T05:53:46.490Z,101891.16
2022-12-07T05:56:13.223Z,101885.84
2022-12-07T05:58:58.263Z,101890.69
2022-12-07T06:01:24.702Z,101893.03
2022-12-07T06:03:51.109Z,101892.00
2022-12-07T06:06:17.565Z,101892.00
2022-12-07T06:08:43.935Z,101888.53
2022-12-07T06:11:28.987Z,101890.91
2022-12-07T06:13:55.329Z,101895.00
2022-12-07T06:16:21.768Z,101885.38
2022-12-07T06:18:48.277Z,101893.88
2022-12-07T06:21:15.365Z,101893.78
2022-12-07T06:23:41.732Z,101891.94
2022-12-07T06:26:08.274Z,101891.75
2022-12-07T06:28:34.612Z,101892.34
2022-12-07T06:31:05.652Z,101886.31
2022-12-07T06:33:34.810Z,101889.50
2022-12-07T06:36:01.143Z,101885.91
2022-12-07T06:38:27.611Z,101877.19
2022-12-07T06:40:53.944Z,101891.44
2022-12-07T06:43:20.417Z,101888.59
2022-12-07T06:45:46.980Z,101891.88
2022-12-07T06:48:13.375Z,101886.72
2022-12-07T06:50:39.877Z,101891.25
2022-12-07T06:53:06.402Z,101883.97
2022-12-07T06:55:32.758Z,101899.94
2022-12-07T06:57:59.283Z,101892.88
2022-12-07T07:00:25.725Z,101896.03
2022-12-07T07:02:52.894Z,101896.63
2022-12-07T07:05:19.490Z,101890.34
2022-12-07T07:08:20.127Z,101894.41
2022-12-07T07:10:32.624Z,101900.03
2022-12-07T07:12:59.120Z,101901.94
2022-12-07T07:15:25.572Z,101900.41
2022-12-07T07:17:52.142Z,101899.56
2022-12-07T07:20:18.765Z,101902.97
2022-12-07T07:22:45.132Z,101900.31
2022-12-07T07:25:11.561Z,101908.81
2022-12-07T07:27:37.994Z,101908.09
2022-12-07T07:30:06.608Z,101906.44
2022-12-07T07:32:33.268Z,101901.22
2022-12-07T07:34:59.840Z,101895.31
2022-12-07T07:37:26.965Z,101897.97
2022-12-07T07:39:53.508Z,101903.06
2022-12-07T07:42:20.194Z,101900.72
2022-12-07T07:44:46.788Z,101908.47
2022-12-07T07:47:13.211Z,101905.00
2022-12-07T07:49:43.197Z,101894.78
2022-12-07T07:52:13.982Z,101898.06
2022-12-07T07:54:40.410Z,101901.31
2022-12-07T07:57:06.754Z,101901.13
2022-12-07T07:59:33.164Z,101901.84
2022-12-07T08:01:59.774Z,101906.69
2022-12-07T08:04:27.038Z,101915.84
2022-12-07T08:06:53.570Z,101914.72
2022-12-07T08:09:20.030Z,101911.94
2022-12-07T08:11:46.464Z,101916.06
2022-12-07T08:14:12.858Z,101915.22
2022-12-07T08:16:39.330Z,101912.66
2022-12-07T08:19:06.459Z,101911.38
2022-12-07T08:21:32.988Z,101920.94
2022-12-07T08:23:59.935Z,101927.91
2022-12-07T08:26:26.300Z,101917.78
2022-12-07T08:28:54.140Z,101920.16
2022-12-07T08:31:21.150Z,101908.91
2022-12-07T08:33:49.102Z,101916.59
2022-12-07T08:36:16.225Z,101909.31
2022-12-07T08:39:01.454Z,101909.50
2022-12-07T08:41:29.447Z,101914.94
2022-12-07T08:43:55.880Z,101906.91
2022-12-07T08:46:38.809Z,101913.47
2022-12-07T08:49:19.655Z,101909.69
2022-12-07T08:51:46.227Z,101908.63
2022-12-07T08:54:17.614Z,101907.81
2022-12-07T08:56:45.349Z,101904.19
2022-12-07T08:59:13.941Z,101910.88
2022-12-07T09:01:40.348Z,101904.81
2022-12-07T09:04:06.789Z,101905.53
2022-12-07T09:06:34.222Z,101908.81
2022-12-07T09:09:02.358Z,101912.09
2022-12-07T09:11:29.227Z,101905.91
2022-12-07T09:13:56.053Z,101904.91
2022-12-07T09:16:22.680Z,101907.16
2022-12-07T09:18:49.155Z,101900.84
2022-12-07T09:21:15.513Z,101913.97
2022-12-07T09:23:44.952Z,101907.03
2022-12-07T09:26:11.591Z,101913.53
2022-12-07T09:28:38.770Z,101909.97
2022-12-07T09:31:23.989Z,101911.88
2022-12-07T09:33:59.059Z,101914.13
2022-12-07T09:36:26.245Z,101920.19
2022-12-07T09:38:52.749Z,101914.22
2022-12-07T09:41:20.220Z,101912.56
2022-12-07T09:43:47.881Z,101903.03
2022-12-07T09:46:16.706Z,101909.44
2022-12-07T09:48:44.897Z,101905.63
2022-12-07T09:51:23.822Z,101910.44
2022-12-07T09:53:52.816Z,101911.13
2022-12-07T09:56:20.576Z,101910.19
2022-12-07T09:58:48.258Z,101907.75
2022-12-07T10:01:17.587Z,101907.75
2022-12-07T10:03:54.225Z,101908.56
2022-12-07T10:06:21.385Z,101898.38
2022-12-07T10:08:47.843Z,101895.13
2022-12-07T10:11:15.741Z,101897.19
2022-12-07T10:13:49.747Z,101894.97
2022-12-07T10:16:25.530Z,101892.88
2022-12-07T10:18:52.422Z,101888.69
2022-12-07T10:21:30.205Z,101884.63
2022-12-07T10:24:11.973Z,101877.63
2022-12-07T10:26:41.497Z,101880.31
2022-12-07T10:29:19.246Z,101873.28
2022-12-07T10:31:50.464Z,101879.75
2022-12-07T10:34:50.426Z,101877.88
2022-12-07T10:37:20.938Z,101876.78
2022-12-07T10:39:55.553Z,101874.72
2022-12-07T10:42:25.961Z,101868.94
2022-12-07T10:45:11.112Z,101866.88
2022-12-07T10:47:44.398Z,101865.22
2022-12-07T10:50:47.554Z,101855.50
2022-12-07T10:53:29.311Z,101854.81
2022-12-07T10:56:15.036Z,101852.81
2022-12-07T10:59:19.578Z,101845.53
2022-12-07T11:01:52.006Z,101843.78
2022-12-07T11:05:01.665Z,101853.19
2022-12-07T11:08:31.501Z,101837.97
2022-12-07T11:11:14.930Z,101842.81
2022-12-07T11:14:16.441Z,101841.06
2022-12-07T11:16:49.015Z,101838.94
2022-12-07T11:22:20.773Z,101836.66
2022-12-07T11:25:03.004Z,101829.91
2022-12-07T11:27:43.332Z,101832.66
2022-12-07T11:30:39.291Z,101821.34
2022-12-07T11:33:16.541Z,101824.88
2022-12-07T11:36:19.346Z,101822.44
2022-12-07T11:38:56.914Z,101819.72
2022-12-07T11:41:31.991Z,101813.75
2022-12-07T11:44:27.341Z,101809.09
2022-12-07T11:47:06.486Z,101812.31
2022-12-07T11:49:55.354Z,101809.00
2022-12-07T11:52:29.432Z,101799.81
2022-12-07T11:54:56.027Z,101800.16
2022-12-07T11:57:46.938Z,101803.72
2022-12-07T12:00:16.877Z,101797.22
2022-12-07T12:03:16.282Z,101797.69
2022-12-07T12:05:42.818Z,101786.84
2022-12-07T12:11:17.519Z,101782.75
2022-12-07T12:14:36.699Z,101769.19
2022-12-07T12:17:24.436Z,101773.50
2022-12-07T12:20:16.899Z,101769.88
2022-12-07T12:22:48.128Z,101781.41
2022-12-07T12:25:25.965Z,101768.16
2022-12-07T12:27:56.320Z,101774.84
2022-12-07T12:30:40.663Z,101770.25
2022-12-07T12:33:21.064Z,101767.09
2022-12-07T12:35:49.352Z,101759.25
2022-12-07T12:38:28.038Z,101745.00
2022-12-07T12:40:56.389Z,101754.16
2022-12-07T12:43:44.065Z,101753.78
2022-12-07T12:46:36.090Z,101743.34
2022-12-07T12:49:20.726Z,101745.53
2022-12-07T12:51:54.817Z,101743.75
2022-12-07T12:54:33.291Z,101744.16
2022-12-07T12:57:08.670Z,101741.44
2022-12-07T12:59:59.616Z,101741.53
2022-12-07T13:02:29.445Z,101736.34
2022-12-07T13:05:11.137Z,101733.88
2022-12-07T13:07:50.868Z,101733.63
2022-12-07T13:10:33.733Z,101731.94
2022-12-07T13:13:15.385Z,101735.16
2022-12-07T13:15:43.556Z,101734.88
2022-12-07T13:18:25.181Z,101733.38
2022-12-07T13:21:13.427Z,101729.78
2022-12-07T13:23:45.944Z,101726.91
2022-12-07T13:26:30.502Z,101722.38
2022-12-07T13:29:21.139Z,101714.44
2022-12-07T13:31:53.380Z,101713.09
2022-12-07T13:34:35.399Z,101704.34
2022-12-07T13:37:32.464Z,101708.25
2022-12-07T13:40:19.707Z,101705.22
2022-12-07T13:42:46.100Z,101710.50
2022-12-07T13:45:44.205Z,101703.59
2022-12-07T13:48:18.466Z,101692.59
2022-12-07T13:50:54.662Z,101687.56
2022-12-07T13:53:21.045Z,101692.84
2022-12-07T13:55:54.011Z,101697.06
2022-12-07T13:58:21.127Z,101693.53
2022-12-07T14:00:47.605Z,101696.09
2022-12-07T14:03:14.025Z,101687.31
2022-12-07T14:05:43.371Z,101682.31
2022-12-07T14:08:12.762Z,101673.72
2022-12-07T14:10:55.721Z,101680.28
2022-12-07T14:13:37.304Z,101681.56
2022-12-07T14:16:06.841Z,101676.13
2022-12-07T14:18:41.486Z,101675.06
2022-12-07T14:21:10.865Z,101669.78
2022-12-07T14:23:39.397Z,101663.97
2022-12-07T14:26:13.935Z,101661.50
2022-12-07T14:28:41.763Z,101661.63
2022-12-07T14:31:22.681Z,101659.31
2022-12-07T14:33:50.602Z,101660.22
2022-12-07T14:36:17.201Z,101659.56
2022-12-07T14:38:43.649Z,101658.75
2022-12-07T14:41:37.302Z,101652.06
2022-12-07T14:44:32.405Z,101655.84
2022-12-07T14:49:44.847Z,101640.59
2022-12-07T14:55:17.834Z,101643.09
2022-12-07T14:57:44.165Z,101656.09
2022-12-07T15:00:15.251Z,101657.97
2022-12-07T15:02:41.674Z,101650.34
2022-12-07T15:05:14.073Z,101652.94
2022-12-07T15:07:42.380Z,101655.50
2022-12-07T15:10:23.547Z,101656.34
2022-12-07T15:12:50.986Z,101667.56
2022-12-07T15:15:18.308Z,101659.84
2022-12-07T15:17:44.642Z,101654.81
2022-12-07T15:20:17.703Z,101646.53
2022-12-07T15:22:44.436Z,101632.38
2022-12-07T15:25:14.482Z,101644.69
2022-12-07T15:27:40.842Z,101642.59
2022-12-07T15:30:07.950Z,101638.91
2022-12-07T15:32:34.346Z,101641.72
2022-12-07T15:35:01.333Z,101645.72
2022-12-07T15:37:27.988Z,101636.59
2022-12-07T15:39:54.605Z,101636.03
2022-12-07T15:42:21.032Z,101636.28
2022-12-07T15:45:06.226Z,101633.03
2022-12-07T15:47:54.899Z,101627.28
2022-12-07T15:50:23.953Z,101615.72
2022-12-07T15:52:50.587Z,101618.53
2022-12-07T15:55:16.943Z,101615.41
2022-12-07T15:57:43.349Z,101608.97
2022-12-07T16:00:11.236Z,101618.00
2022-12-07T16:02:39.996Z,101614.25
2022-12-07T16:05:07.050Z,101615.44
2022-12-07T16:07:33.399Z,101602.81
2022-12-07T16:09:59.756Z,101599.69
2022-12-07T16:12:26.204Z,101607.50
2022-12-07T16:14:52.537Z,101602.47
2022-12-07T16:17:18.924Z,101604.25
2022-12-07T16:19:45.304Z,101594.88
2022-12-07T16:22:11.723Z,101589.75
2022-12-07T16:24:38.063Z,101591.75
2022-12-07T16:27:04.421Z,101592.09
2022-12-07T16:29:30.826Z,101596.66
2022-12-07T16:31:57.272Z,101589.88
2022-12-07T16:34:23.672Z,101585.91
2022-12-07T16:37:06.088Z,101583.44
2022-12-07T16:39:34.182Z,101581.00
2022-12-07T16:42:00.877Z,101576.91
2022-12-07T16:44:27.525Z,101580.53
2022-12-07T16:46:54.068Z,101575.63
2022-12-07T16:49:20.579Z,101574.94
2022-12-07T16:52:08.853Z,101572.59
2022-12-07T16:54:37.639Z,101565.97
2022-12-07T16:57:03.996Z,101561.88
2022-12-07T16:59:30.354Z,101562.78
2022-12-07T17:01:56.750Z,101566.31
2022-12-07T17:04:23.173Z,101573.19
2022-12-07T17:06:49.590Z,101567.34
2022-12-07T17:09:20.912Z,101566.78
2022-12-07T17:11:48.648Z,101559.19
2022-12-07T17:14:33.945Z,101568.75
2022-12-07T17:17:03.194Z,101561.97
2022-12-07T17:19:29.614Z,101558.50
2022-12-07T17:21:55.974Z,101552.50
2022-12-07T17:24:22.413Z,101557.66
2022-12-07T17:26:48.851Z,101564.44
2022-12-07T17:29:17.974Z,101563.63
2022-12-07T17:31:50.932Z,101554.97
2022-12-07T17:34:18.862Z,101552.41
2022-12-07T17:36:46.036Z,101557.19
2022-12-07T17:39:16.235Z,101552.63
2022-12-07T17:42:01.369Z,101553.34
2022-12-07T17:44:28.397Z,101558.84
2022-12-07T17:46:55.517Z,101559.75
2022-12-07T17:49:22.066Z,101555.78
2022-12-07T17:52:07.254Z,101545.38
2022-12-07T17:54:33.797Z,101546.31
2022-12-07T17:57:00.369Z,101542.22
2022-12-07T17:59:26.763Z,101537.19
2022-12-07T18:01:53.519Z,101528.69
2022-12-07T18:04:19.973Z,101509.06
2022-12-07T18:06:51.770Z,101510.00
2022-12-07T18:09:19.286Z,101507.69
2022-12-07T18:11:46.002Z,101502.91
2022-12-07T18:14:12.415Z,101499.63
2022-12-07T18:16:38.851Z,101501.63
2022-12-07T18:19:07.694Z,101497.66
2022-12-07T18:21:34.182Z,101503.03
2022-12-07T18:24:03.154Z,101500.69
2022-12-07T18:26:31.819Z,101493.09
2022-12-07T18:29:01.687Z,101493.34
2022-12-07T18:31:29.406Z,101490.88
2022-12-07T18:33:57.003Z,101502.91
2022-12-07T18:36:23.955Z,101491.94
2022-12-07T18:38:50.632Z,101486.00
2022-12-07T18:41:17.114Z,101487.84
2022-12-07T18:43:44.248Z,101498.13
2022-12-07T18:46:21.312Z,101491.25
2022-12-07T18:48:50.403Z,101500.69
2022-12-07T18:51:18.127Z,101492.19
2022-12-07T18:53:44.980Z,101497.31
2022-12-07T18:56:25.893Z,101508.41
2022-12-07T18:59:22.195Z,101506.78
2022-12-07T19:01:55.841Z,101503.38
2022-12-07T19:04:22.532Z,101509.47
2022-12-07T19:06:49.717Z,101513.75
2022-12-07T19:09:16.639Z,101513.06
2022-12-07T19:11:52.474Z,101513.06
2022-12-07T19:14:25.127Z,101509.13
2022-12-07T19:17:00.039Z,101514.38
2022-12-07T19:19:33.234Z,101499.88
2022-12-07T19:22:00.087Z,101503.25
2022-12-07T19:24:26.930Z,101497.22
2022-12-07T19:26:53.384Z,101498.00
2022-12-07T19:29:20.212Z,101499.78
2022-12-07T19:31:46.918Z,101503.16
2022-12-07T19:34:16.083Z,101493.94
2022-12-07T19:36:43.184Z,101498.25
2022-12-07T19:39:14.450Z,101485.53
2022-12-07T19:41:44.044Z,101479.59
2022-12-07T19:44:13.811Z,101488.47
2022-12-07T19:46:42.026Z,101481.69
2022-12-07T19:49:08.619Z,101468.03
2022-12-07T19:51:34.991Z,101469.66
2022-12-07T19:54:02.308Z,101466.97
2022-12-07T19:56:30.454Z,101454.25
2022-12-07T19:58:59.791Z,101464.66
2022-12-07T20:01:26.247Z,101463.84
2022-12-07T20:03:52.680Z,101462.19
2022-12-07T20:06:20.087Z,101462.19
2022-12-07T20:08:47.985Z,101460.47
2022-12-07T20:11:35.733Z,101451.94
2022-12-07T20:14:02.910Z,101458.81
2022-12-07T20:16:29.353Z,101452.88
2022-12-07T20:18:57.882Z,101450.44
2022-12-07T20:21:25.102Z,101441.19
2022-12-07T20:23:51.981Z,101449.13
2022-12-07T20:26:19.384Z,101450.09
2022-12-07T20:28:46.624Z,101436.41
2022-12-07T20:31:14.654Z,101427.22
2022-12-07T20:33:43.383Z,101423.94
2022-12-07T20:36:10.225Z,101426.75
2022-12-07T20:38:36.945Z,101418.34
2022-12-07T20:41:07.055Z,101419.28
2022-12-07T20:43:34.162Z,101409.13
2022-12-07T20:46:00.910Z,101408.41
2022-12-07T20:48:27.906Z,101408.41
2022-12-07T20:50:54.781Z,101408.53
2022-12-07T20:53:21.413Z,101404.34
2022-12-07T20:55:47.758Z,101401.09
2022-12-07T20:58:14.130Z,101397.22
2022-12-07T21:00:40.603Z,101405.03
2022-12-07T21:03:07.109Z,101398.53
2022-12-07T21:05:35.200Z,101407.25
2022-12-07T21:08:01.903Z,101400.59
2022-12-07T21:10:28.291Z,101393.97
2022-12-07T21:12:55.977Z,101395.97
2022-12-07T21:15:22.861Z,101389.41
2022-12-07T21:17:49.251Z,101393.97
2022-12-07T21:20:15.707Z,101388.47
2022-12-07T21:22:42.071Z,101390.56
2022-12-07T21:25:09.153Z,101389.97
2022-12-07T21:27:35.545Z,101388.34
2022-12-07T21:30:01.907Z,101383.34
2022-12-07T21:32:28.286Z,101387.50
2022-12-07T21:34:54.660Z,101376.44
2022-12-07T21:37:21.027Z,101375.53
2022-12-07T21:39:47.399Z,101372.00
2022-12-07T21:42:13.729Z,101371.09
2022-12-07T21:44:40.110Z,101365.16
2022-12-07T21:47:06.604Z,101362.59
2022-12-07T21:49:35.508Z,101369.44
2022-12-07T21:52:02.148Z,101366.09
2022-12-07T21:54:28.582Z,101361.88
2022-12-07T21:56:55.018Z,101354.91
2022-12-07T21:59:21.435Z,101350.59
2022-12-07T22:01:48.949Z,101351.41
2022-12-07T22:04:18.471Z,101354.69
2022-12-07T22:06:45.717Z,101351.06
2022-12-07T22:09:12.790Z,101340.69
2022-12-07T22:11:39.425Z,101343.03
2022-12-07T22:14:24.957Z,101341.03
2022-12-07T22:16:52.577Z,101332.31
2022-12-07T22:19:19.161Z,101338.13
2022-12-07T22:21:45.894Z,101340.81
2022-12-07T22:24:13.748Z,101342.44
2022-12-07T22:26:41.177Z,101337.44
2022-12-07T22:29:07.587Z,101335.56
2022-12-07T22:31:34.100Z,101338.94
2022-12-07T22:34:00.511Z,101333.69
2022-12-07T22:36:28.295Z,101328.44
2022-12-07T22:38:54.773Z,101334.41
2022-12-07T22:41:27.149Z,101324.38
2022-12-07T22:43:54.462Z,101328.09
2022-12-07T22:46:21.568Z,101326.59
2022-12-07T22:48:48.661Z,101322.38
2022-12-07T22:51:29.518Z,101311.31
2022-12-07T22:53:59.526Z,101305.38
2022-12-07T22:56:26.764Z,101304.56
2022-12-07T22:58:53.124Z,101296.06
2022-12-07T23:01:21.021Z,101295.22
2022-12-07T23:03:47.884Z,101301.31
2022-12-07T23:06:17.738Z,101292.88
2022-12-07T23:08:44.769Z,101294.53
2022-12-07T23:11:36.087Z,101299.53
2022-12-07T23:14:09.179Z,101286.72
2022-12-07T23:16:35.667Z,101281.72
2022-12-07T23:19:02.087Z,101277.28
2022-12-07T23:21:28.499Z,101272.16
2022-12-07T23:23:54.927Z,101269.81
2022-12-07T23:26:21.502Z,101274.13
2022-12-07T23:28:47.889Z,101264.94
2022-12-07T23:31:16.630Z,101264.34
2022-12-07T23:33:43.837Z,101267.97
2022-12-07T23:36:19.465Z,101263.06
2022-12-07T23:38:49.780Z,101258.06
2022-12-07T23:41:18.793Z,101255.63
2022-12-07T23:43:45.704Z,101257.94
2022-12-07T23:46:24.107Z,101261.09
2022-12-07T23:48:52.630Z,101252.25
2022-12-07T23:51:19.864Z,101261.19
2022-12-07T23:53:48.490Z,101249.69
2022-12-07T23:56:18.368Z,101249.28
2022-12-07T23:58:45.202Z,101232.88
